Time;durP1;ratioP1;P1;durP2;ratioP2;P2;SDS_P1;SDS_P2;PMS_P1;PMS_P2;Temp;Humidity;BMP_temperature;BMP_pressure;BME280_temperature;BME280_humidity;BME280_pressure;Samples;Min_cycle;Max_cycle;Signal;HPM_P1;HPM_P2
2022/10/06 00:01:16;;;;;;;24.52;9.18;;;;;;;9.46;100.00;99421.84;5174422;27;20054;-50
2022/10/06 00:03:43;;;;;;;19.23;9.60;;;;;;;9.38;100.00;99429.84;5174502;27;20054;-53
2022/10/06 00:06:12;;;;;;;23.13;8.73;;;;;;;9.41;100.00;99414.69;5174537;27;20052;-51
2022/10/06 00:08:40;;;;;;;15.13;8.27;;;;;;;9.39;100.00;99412.28;5174202;27;20524;-51
2022/10/06 00:11:07;;;;;;;22.75;9.00;;;;;;;9.33;100.00;99419.19;5174575;27;20426;-52
2022/10/06 00:13:34;;;;;;;22.08;9.73;;;;;;;9.29;100.00;99412.81;5174251;27;20545;-52
2022/10/06 00:16:00;;;;;;;26.40;8.77;;;;;;;9.26;100.00;99409.97;5174593;27;20042;-53
2022/10/06 00:18:28;;;;;;;24.42;9.82;;;;;;;9.27;100.00;99397.91;5174266;27;20053;-49
2022/10/06 00:20:55;;;;;;;22.55;9.63;;;;;;;9.29;100.00;99409.28;5174014;27;20054;-50
2022/10/06 00:23:22;;;;;;;20.52;8.48;;;;;;;9.25;100.00;99411.13;5174080;27;20058;-53
2022/10/06 00:25:49;;;;;;;13.73;9.35;;;;;;;9.22;100.00;99412.63;5174348;27;20042;-51
2022/10/06 00:28:15;;;;;;;24.17;9.20;;;;;;;9.19;100.00;99410.56;5174275;27;20522;-49
2022/10/06 00:30:43;;;;;;;25.73;9.18;;;;;;;9.17;100.00;99416.41;5173813;27;20501;-49
2022/10/06 00:33:12;;;;;;;25.83;10.15;;;;;;;9.17;100.00;99410.16;5174212;27;20137;-50
2022/10/06 00:35:38;;;;;;;21.02;8.45;;;;;;;9.15;100.00;99421.41;5173745;27;20053;-49
2022/10/06 00:38:05;;;;;;;22.05;10.55;;;;;;;9.13;100.00;99425.66;5174014;27;20103;-50
2022/10/06 00:40:32;;;;;;;27.85;9.70;;;;;;;9.07;100.00;99436.06;5173896;27;20050;-50
2022/10/06 00:43:00;;;;;;;21.27;10.90;;;;;;;9.07;100.00;99432.53;5173660;27;20050;-51
2022/10/06 00:45:31;;;;;;;21.95;10.43;;;;;;;9.05;100.00;99434.81;5173819;27;20061;-49
2022/10/06 00:48:02;;;;;;;22.65;10.32;;;;;;;9.03;100.00;99426.97;5173734;27;20046;-49
2022/10/06 00:50:29;;;;;;;28.27;10.45;;;;;;;9.02;100.00;99436.28;5173685;27;20047;-49
2022/10/06 00:52:56;;;;;;;22.35;9.15;;;;;;;8.88;100.00;99427.69;5173847;27;20397;-50
2022/10/06 00:55:22;;;;;;;17.98;10.10;;;;;;;8.87;100.00;99417.91;5174206;27;20452;-50
2022/10/06 00:57:51;;;;;;;18.52;9.38;;;;;;;8.92;100.00;99403.97;5173487;27;20056;-49
2022/10/06 01:00:18;;;;;;;18.17;9.38;;;;;;;8.90;100.00;99418.00;5174072;27;20057;-49
2022/10/06 01:02:48;;;;;;;23.98;10.77;;;;;;;8.90;100.00;99417.22;5173542;27;20501;-49
2022/10/06 01:05:19;;;;;;;25.40;11.30;;;;;;;8.87;100.00;99418.69;5173682;27;20047;-49
2022/10/06 01:07:45;;;;;;;18.83;10.63;;;;;;;8.86;100.00;99427.22;5173434;27;20042;-49
2022/10/06 01:10:11;;;;;;;23.20;11.30;;;;;;;8.82;100.00;99427.13;5173405;27;20072;-50
2022/10/06 01:12:38;;;;;;;25.45;10.75;;;;;;;8.66;100.00;99418.88;5173403;27;20505;-50
2022/10/06 01:15:07;;;;;;;20.27;9.88;;;;;;;8.62;100.00;99403.50;5173169;27;20050;-50
2022/10/06 01:17:37;;;;;;;22.88;11.07;;;;;;;8.64;100.00;99399.28;5173115;27;20103;-49
2022/10/06 01:20:07;;;;;;;31.17;12.02;;;;;;;8.72;100.00;99383.88;5173081;27;20496;-50
2022/10/06 01:22:37;;;;;;;27.60;11.32;;;;;;;8.76;100.00;99392.19;5173480;27;20049;-49
2022/10/06 01:25:05;;;;;;;22.85;10.93;;;;;;;8.67;100.00;99381.41;5173046;27;20448;-49
2022/10/06 01:27:33;;;;;;;25.90;11.55;;;;;;;8.72;100.00;99387.41;5173310;27;20057;-49
2022/10/06 01:30:00;;;;;;;22.73;11.27;;;;;;;8.75;100.00;99391.38;5172911;27;20507;-50
2022/10/06 01:32:32;;;;;;;22.83;10.23;;;;;;;8.71;100.00;99398.69;5173335;27;20437;-50
2022/10/06 01:34:59;;;;;;;24.25;9.85;;;;;;;8.56;100.00;99397.47;5173386;27;20042;-49
2022/10/06 01:37:25;;;;;;;37.70;12.85;;;;;;;8.65;100.00;99391.88;5173121;27;20050;-49
2022/10/06 01:39:52;;;;;;;32.45;12.02;;;;;;;8.63;100.00;99386.78;5173000;27;20436;-50
2022/10/06 01:42:18;;;;;;;21.05;10.50;;;;;;;8.58;100.00;99378.00;5172953;27;20054;-52
2022/10/06 01:44:44;;;;;;;23.10;11.05;;;;;;;8.60;100.00;99373.00;5173307;27;20110;-49
2022/10/06 01:47:10;;;;;;;21.20;11.35;;;;;;;8.48;100.00;99371.09;5172929;27;20050;-52
2022/10/06 01:49:36;;;;;;;24.02;11.70;;;;;;;8.56;100.00;99369.34;5172943;27;20046;-49
2022/10/06 01:52:04;;;;;;;25.55;11.30;;;;;;;8.58;100.00;99365.13;5172479;27;20054;-52
2022/10/06 01:54:30;;;;;;;23.50;11.00;;;;;;;8.61;100.00;99367.19;5171962;27;20046;-49
2022/10/06 01:56:57;;;;;;;20.65;11.20;;;;;;;8.54;100.00;99372.44;5172573;27;20501;-50
2022/10/06 01:59:23;;;;;;;27.95;13.02;;;;;;;8.58;100.00;99367.09;5172881;27;20394;-50
2022/10/06 02:01:50;;;;;;;28.55;11.05;;;;;;;8.51;100.00;99367.66;5172657;27;20118;-50
2022/10/06 02:04:16;;;;;;;25.92;12.25;;;;;;;8.48;100.00;99366.41;5172401;27;20050;-49
2022/10/06 02:06:43;;;;;;;25.30;12.07;;;;;;;8.55;100.00;99365.84;5172529;27;20051;-49
2022/10/06 02:09:09;;;;;;;22.80;11.50;;;;;;;8.56;100.00;99372.88;5172534;27;20054;-51
2022/10/06 02:11:36;;;;;;;31.30;12.20;;;;;;;8.49;100.00;99368.00;5172187;27;20084;-50
2022/10/06 02:14:02;;;;;;;31.20;13.30;;;;;;;8.50;100.00;99368.81;5172320;27;20054;-51
2022/10/06 02:16:30;;;;;;;23.55;13.50;;;;;;;8.48;100.00;99360.94;5172657;27;20061;-49
2022/10/06 02:18:56;;;;;;;27.55;13.07;;;;;;;8.46;100.00;99368.72;5172451;27;20140;-49
2022/10/06 02:21:22;;;;;;;27.05;12.35;;;;;;;8.51;100.00;99361.41;5172281;27;20053;-49
2022/10/06 02:23:49;;;;;;;25.92;13.68;;;;;;;8.52;100.00;99366.53;5172246;27;20050;-51
2022/10/06 02:26:17;;;;;;;32.70;14.35;;;;;;;8.54;100.00;99366.97;5172412;27;20042;-53
2022/10/06 02:28:43;;;;;;;26.75;13.60;;;;;;;8.56;100.00;99374.81;5172209;27;20046;-53
2022/10/06 02:31:10;;;;;;;27.10;14.00;;;;;;;8.59;100.00;99374.13;5172156;27;20191;-50
2022/10/06 02:33:38;;;;;;;28.58;13.95;;;;;;;8.66;100.00;99375.16;5172190;27;20042;-49
2022/10/06 02:36:06;;;;;;;26.25;13.20;;;;;;;8.75;100.00;99377.72;5172052;27;20046;-53
2022/10/06 02:38:33;;;;;;;43.10;15.30;;;;;;;8.83;100.00;99371.31;5172017;27;20046;-50
2022/10/06 02:41:00;;;;;;;27.98;14.85;;;;;;;8.81;100.00;99368.13;5171927;27;20053;-50
2022/10/06 02:43:28;;;;;;;27.83;13.82;;;;;;;8.98;100.00;99361.56;5172367;27;20053;-51
2022/10/06 02:45:55;;;;;;;27.90;15.02;;;;;;;9.08;100.00;99358.31;5172082;27;20050;-51
2022/10/06 02:48:23;;;;;;;25.83;13.75;;;;;;;9.03;100.00;99365.97;5172162;27;20051;-52
2022/10/06 02:50:54;;;;;;;40.55;17.98;;;;;;;8.93;100.00;99338.00;5171807;27;20561;-50
2022/10/06 02:53:20;;;;;;;43.95;19.85;;;;;;;9.06;100.00;99314.09;5172240;27;20080;-53
2022/10/06 02:55:46;;;;;;;33.55;18.20;;;;;;;8.98;100.00;99295.16;5172283;27;20046;-50
2022/10/06 02:58:13;;;;;;;35.33;17.95;;;;;;;9.25;100.00;99290.75;5172056;27;20114;-49
2022/10/06 03:00:39;;;;;;;33.72;17.92;;;;;;;9.33;100.00;99284.31;5171843;27;20054;-52
2022/10/06 03:03:05;;;;;;;39.70;18.70;;;;;;;9.20;100.00;99294.56;5171743;27;20057;-52
2022/10/06 03:05:32;;;;;;;45.13;18.77;;;;;;;9.55;100.00;99291.09;5171617;27;20058;-53
2022/10/06 03:07:58;;;;;;;35.90;16.73;;;;;;;9.36;100.00;99292.63;5174773;27;20046;-50
2022/10/06 03:10:24;;;;;;;44.47;18.65;;;;;;;9.34;100.00;99288.66;5175629;27;20450;-51
2022/10/06 03:12:51;;;;;;;39.08;18.38;;;;;;;9.31;100.00;99292.09;5175200;27;20050;-52
2022/10/06 03:15:19;;;;;;;39.78;19.08;;;;;;;9.64;100.00;99283.50;5175354;27;20051;-49
2022/10/06 03:17:48;;;;;;;37.35;19.15;;;;;;;9.56;100.00;99279.00;5175231;27;20057;-50
2022/10/06 03:20:14;;;;;;;33.90;18.75;;;;;;;9.54;100.00;99286.78;5175401;27;20413;-49
2022/10/06 03:22:41;;;;;;;31.80;18.83;;;;;;;9.57;100.00;99283.34;5175091;27;20424;-49
2022/10/06 03:25:08;;;;;;;43.67;18.33;;;;;;;9.64;100.00;99288.97;5175305;27;20071;-49
2022/10/06 03:27:34;;;;;;;39.78;18.20;;;;;;;9.76;100.00;99291.59;5174983;27;20527;-50
2022/10/06 03:30:02;;;;;;;35.78;18.92;;;;;;;9.59;100.00;99297.44;5175051;27;20053;-49
2022/10/06 03:32:28;;;;;;;42.13;19.95;;;;;;;9.73;100.00;99292.31;5174992;27;20123;-50
2022/10/06 03:34:54;;;;;;;38.05;18.63;;;;;;;9.64;100.00;99297.19;5174848;27;20050;-49
2022/10/06 03:37:21;;;;;;;41.80;18.90;;;;;;;9.83;100.00;99304.66;5175236;27;20046;-50
2022/10/06 03:39:48;;;;;;;33.75;17.85;;;;;;;9.82;100.00;99316.75;5174844;27;20124;-50
2022/10/06 03:42:14;;;;;;;41.72;19.23;;;;;;;9.96;100.00;99319.81;5174847;27;20050;-49
2022/10/06 03:44:40;;;;;;;46.13;21.00;;;;;;;9.92;100.00;99338.13;5174871;27;20473;-48
2022/10/06 03:47:07;;;;;;;36.42;19.08;;;;;;;9.71;100.00;99346.63;5174991;27;20050;-49
2022/10/06 03:49:33;;;;;;;37.65;20.00;;;;;;;9.75;100.00;99338.50;5174678;27;20501;-51
2022/10/06 03:51:59;;;;;;;46.42;19.50;;;;;;;9.81;100.00;99335.13;5174879;27;20050;-51
2022/10/06 03:54:25;;;;;;;39.15;19.50;;;;;;;9.56;100.00;99339.22;5174619;27;20064;-49
2022/10/06 03:56:53;;;;;;;41.35;21.30;;;;;;;9.72;100.00;99331.00;5174713;27;20091;-53
2022/10/06 03:59:19;;;;;;;44.28;20.55;;;;;;;9.66;100.00;99322.25;5174535;27;20527;-50
2022/10/06 04:01:46;;;;;;;37.50;19.30;;;;;;;9.57;100.00;99322.44;5174368;27;20462;-49
2022/10/06 04:04:13;;;;;;;42.88;20.13;;;;;;;9.62;100.00;99316.69;5174784;27;20509;-50
2022/10/06 04:06:41;;;;;;;43.63;20.33;;;;;;;9.67;100.00;99296.47;5174575;27;20054;-48
2022/10/06 04:09:09;;;;;;;35.25;19.88;;;;;;;9.63;100.00;99290.94;5174452;27;20043;-50
2022/10/06 04:11:38;;;;;;;44.47;21.58;;;;;;;9.74;100.00;99293.91;5174240;27;20102;-51
2022/10/06 04:14:06;;;;;;;43.30;21.25;;;;;;;9.77;100.00;99297.88;5174383;27;20095;-51
2022/10/06 04:16:34;;;;;;;42.72;19.77;;;;;;;9.60;100.00;99302.59;5174426;27;20046;-52
2022/10/06 04:19:04;;;;;;;44.05;19.40;;;;;;;9.79;100.00;99304.56;5173855;27;20050;-51
2022/10/06 04:21:32;;;;;;;41.28;19.95;;;;;;;9.61;100.00;99319.78;5174253;27;20117;-50
2022/10/06 04:23:59;;;;;;;48.67;21.38;;;;;;;9.73;100.00;99316.16;5174339;27;20105;-51
2022/10/06 04:26:29;;;;;;;50.17;22.23;;;;;;;9.73;100.00;99311.50;5174325;27;20042;-49
2022/10/06 04:28:56;;;;;;;52.90;21.08;;;;;;;9.47;100.00;99311.25;5174044;27;20073;-49
2022/10/06 04:31:24;;;;;;;41.50;21.10;;;;;;;9.66;100.00;99298.44;5174019;27;20054;-51
2022/10/06 04:33:53;;;;;;;55.00;23.05;;;;;;;9.82;100.00;99297.59;5174085;27;20057;-50
2022/10/06 04:36:22;;;;;;;46.13;24.02;;;;;;;9.85;100.00;99296.88;5173951;27;20054;-49
2022/10/06 04:38:49;;;;;;;61.25;26.77;;;;;;;9.92;100.00;99307.19;5173770;27;20090;-51
2022/10/06 04:41:18;;;;;;;59.88;26.95;;;;;;;9.77;100.00;99306.09;5173954;27;20501;-50
2022/10/06 04:43:45;;;;;;;58.55;26.58;;;;;;;9.39;100.00;99311.03;5173938;27;20051;-51
2022/10/06 04:46:12;;;;;;;49.47;24.85;;;;;;;9.28;100.00;99301.78;5173870;27;20408;-50
2022/10/06 04:48:39;;;;;;;59.45;25.85;;;;;;;9.79;100.00;99299.09;5174042;27;20050;-49
2022/10/06 04:51:07;;;;;;;46.75;23.65;;;;;;;9.64;100.00;99305.41;5173497;27;20046;-54
2022/10/06 04:53:34;;;;;;;46.63;20.90;;;;;;;9.55;100.00;99318.47;5173379;27;20413;-52
2022/10/06 04:56:02;;;;;;;46.20;21.90;;;;;;;9.54;100.00;99311.41;5173412;27;20052;-52
2022/10/06 04:58:31;;;;;;;64.22;21.88;;;;;;;9.59;100.00;99311.91;5173337;27;20056;-52
2022/10/06 05:00:57;;;;;;;48.65;23.67;;;;;;;9.67;100.00;99299.22;5173138;27;20527;-51
2022/10/06 05:03:23;;;;;;;51.15;23.67;;;;;;;9.99;100.00;99302.66;5173171;27;20141;-62
2022/10/06 05:05:50;;;;;;;49.92;23.83;;;;;;;9.95;100.00;99311.97;5173178;27;20129;-63
2022/10/06 05:08:16;;;;;;;62.40;28.25;;;;;;;10.09;100.00;99326.75;5173165;27;20050;-63
2022/10/06 05:10:43;;;;;;;43.55;22.33;;;;;;;10.14;100.00;99344.88;5173187;27;20050;-65
2022/10/06 05:13:10;;;;;;;42.33;23.02;;;;;;;10.16;100.00;99361.75;5173101;27;20064;-65
2022/10/06 05:15:36;;;;;;;43.45;20.92;;;;;;;10.27;100.00;99370.25;5173412;27;20481;-58
2022/10/06 05:18:03;;;;;;;43.55;21.60;;;;;;;10.31;100.00;99384.81;5172917;27;20112;-58
2022/10/06 05:20:29;;;;;;;44.40;20.35;;;;;;;10.10;100.00;99407.03;5173212;27;20043;-61
2022/10/06 05:22:57;;;;;;;45.50;20.90;;;;;;;10.27;100.00;99403.13;5173065;27;20056;-62
2022/10/06 05:25:23;;;;;;;42.25;18.95;;;;;;;9.88;100.00;99408.44;5172872;27;20442;-63
2022/10/06 05:27:49;;;;;;;44.28;20.52;;;;;;;10.13;100.00;99392.63;5173217;27;20046;-61
2022/10/06 05:30:16;;;;;;;39.33;19.75;;;;;;;10.37;100.00;99394.38;5172078;27;20054;-61
2022/10/06 05:32:45;;;;;;;41.72;18.88;;;;;;;10.55;100.00;99416.66;5172975;27;20046;-61
2022/10/06 05:35:11;;;;;;;33.05;18.33;;;;;;;10.47;100.00;99436.88;5172797;27;20054;-63
2022/10/06 05:37:38;;;;;;;34.20;19.00;;;;;;;10.16;100.00;99454.88;5172888;27;20073;-58
2022/10/06 05:40:05;;;;;;;36.10;19.15;;;;;;;10.62;100.00;99466.16;5172919;27;20590;-60
2022/10/06 05:42:32;;;;;;;55.03;25.17;;;;;;;10.56;100.00;99479.38;5172541;27;20050;-63
2022/10/06 05:44:58;;;;;;;61.40;29.13;;;;;;;10.59;100.00;99500.56;5172656;27;20050;-58
2022/10/06 05:47:24;;;;;;;56.78;25.27;;;;;;;10.57;100.00;99513.06;5172565;27;20098;-60
2022/10/06 05:49:50;;;;;;;42.90;21.63;;;;;;;10.66;100.00;99527.34;5172531;27;20057;-61
2022/10/06 05:52:16;;;;;;;50.10;20.30;;;;;;;10.51;100.00;99528.19;5172377;27;20505;-59
2022/10/06 05:54:43;;;;;;;36.22;18.67;;;;;;;10.58;100.00;99529.16;5172390;27;20053;-61
2022/10/06 05:57:13;;;;;;;32.63;18.42;;;;;;;10.66;100.00;99538.31;5172838;27;20118;-61
2022/10/06 05:59:39;;;;;;;29.02;16.63;;;;;;;10.72;100.00;99556.09;5172701;27;20125;-61
2022/10/06 06:02:05;;;;;;;27.55;14.77;;;;;;;11.03;100.00;99571.72;5172434;27;20050;-60
2022/10/06 06:04:31;;;;;;;33.50;17.25;;;;;;;10.91;100.00;99598.47;5172645;27;20436;-59
2022/10/06 06:06:57;;;;;;;33.60;17.33;;;;;;;11.07;100.00;99616.50;5172742;27;20046;-60
2022/10/06 06:09:25;;;;;;;30.63;18.15;;;;;;;11.02;100.00;99632.41;5172595;27;20054;-61
2022/10/06 06:11:51;;;;;;;35.08;18.85;;;;;;;10.93;100.00;99640.84;5172665;27;20148;-61
2022/10/06 06:15:59;;;;;;;40.08;19.75;;;;;;;11.06;100.00;99644.25;5172397;27;20058;-59
2022/10/06 06:17:07;;;;;;;38.35;19.20;;;;;;;10.98;100.00;99654.28;5172361;27;20137;-62
2022/10/06 06:19:33;;;;;;;46.00;20.25;;;;;;;11.04;100.00;99650.13;5172215;27;20093;-62
2022/10/06 06:21:59;;;;;;;36.03;19.08;;;;;;;11.03;100.00;99656.78;5172392;27;20050;-63
2022/10/06 06:24:25;;;;;;;31.15;16.83;;;;;;;10.88;100.00;99652.09;5172328;27;20065;-62
2022/10/06 06:26:51;;;;;;;33.58;19.10;;;;;;;11.14;100.00;99661.72;5172243;27;20058;-64
2022/10/06 06:29:18;;;;;;;37.58;17.38;;;;;;;11.43;100.00;99677.69;5172615;27;20552;-61
2022/10/06 06:31:48;;;;;;;39.05;21.42;;;;;;;11.48;100.00;99715.03;5172145;27;20054;-59
2022/10/06 06:34:14;;;;;;;42.38;21.05;;;;;;;11.35;100.00;99725.31;5172176;27;20123;-61
2022/10/06 06:36:45;;;;;;;36.38;19.00;;;;;;;11.29;100.00;99730.28;5172060;27;20049;-61
2022/10/06 06:39:13;;;;;;;37.72;16.33;;;;;;;10.89;100.00;99721.44;5172349;27;20118;-61
2022/10/06 06:41:41;;;;;;;30.70;17.08;;;;;;;11.02;100.00;99711.97;5174712;27;20059;-61
2022/10/06 06:44:10;;;;;;;33.22;17.52;;;;;;;11.16;100.00;99725.25;5175694;27;20051;-59
2022/10/06 06:46:38;;;;;;;26.25;17.30;;;;;;;11.05;100.00;99714.03;5175553;27;20050;-61
2022/10/06 06:49:05;;;;;;;31.60;17.95;;;;;;;11.14;100.00;99720.13;5175657;27;20073;-62
2022/10/06 06:51:33;;;;;;;37.47;17.05;;;;;;;10.78;100.00;99718.44;5175304;27;20061;-62
2022/10/06 06:54:01;;;;;;;31.60;17.42;;;;;;;11.10;100.00;99705.53;5175680;27;20459;-61
2022/10/06 06:56:28;;;;;;;34.47;17.00;;;;;;;11.12;100.00;99705.16;5175806;27;20050;-61
2022/10/06 06:58:54;;;;;;;29.52;17.38;;;;;;;11.11;100.00;99709.88;5175515;27;20050;-60
2022/10/06 07:01:22;;;;;;;31.65;17.67;;;;;;;11.29;100.00;99702.03;5175564;27;20417;-61
2022/10/06 07:03:52;;;;;;;37.75;20.25;;;;;;;11.43;100.00;99712.56;5175371;27;20531;-62
2022/10/06 07:06:19;;;;;;;38.75;19.33;;;;;;;11.42;100.00;99717.25;5175446;27;20046;-61
2022/10/06 07:08:48;;;;;;;34.63;18.98;;;;;;;11.46;100.00;99733.81;5175368;27;20050;-61
2022/10/06 07:11:17;;;;;;;42.33;20.17;;;;;;;11.47;100.00;99735.44;5175063;27;20075;-61
2022/10/06 07:13:44;;;;;;;39.53;18.85;;;;;;;11.45;100.00;99735.75;5175246;27;20046;-61
2022/10/06 07:27:09;;;;;;;41.88;19.95;;;;;;;11.63;100.00;99736.19;5175280;27;20049;-60
2022/10/06 07:29:38;;;;;;;45.38;23.23;;;;;;;11.62;100.00;99740.06;5175049;27;20046;-60
2022/10/06 07:32:04;;;;;;;42.10;23.65;;;;;;;11.61;100.00;99738.50;5175071;27;20065;-61
2022/10/06 07:34:31;;;;;;;38.85;21.45;;;;;;;11.48;100.00;99737.81;5174837;27;20056;-61
2022/10/06 07:36:58;;;;;;;39.45;21.98;;;;;;;11.69;100.00;99742.97;5174952;27;20050;-62
2022/10/06 07:39:24;;;;;;;32.97;19.92;;;;;;;11.40;100.00;99741.53;5174803;27;20053;-61
2022/10/06 07:41:50;;;;;;;37.63;20.85;;;;;;;11.89;100.00;99735.59;5174908;27;20050;-62
2022/10/06 07:44:17;;;;;;;35.05;21.42;;;;;;;12.04;100.00;99749.66;5174652;27;20042;-62
2022/10/06 07:46:43;;;;;;;37.22;20.83;;;;;;;12.04;100.00;99752.41;5174422;27;20042;-61
2022/10/06 07:49:09;;;;;;;33.92;20.33;;;;;;;11.90;100.00;99753.69;5174205;27;20098;-60
2022/10/06 07:51:36;;;;;;;31.45;20.48;;;;;;;12.13;100.00;99758.47;5174062;27;20109;-61
2022/10/06 07:54:03;;;;;;;32.47;18.92;;;;;;;11.81;100.00;99766.00;5174168;27;20057;-61
2022/10/06 07:56:30;;;;;;;45.83;21.58;;;;;;;12.05;100.00;99764.97;5174333;27;20524;-61
2022/10/06 07:58:57;;;;;;;32.58;18.15;;;;;;;12.02;100.00;99755.50;5174251;27;20050;-61
2022/10/06 08:01:25;;;;;;;30.80;17.88;;;;;;;12.05;100.00;99762.22;5174201;27;20050;-61
2022/10/06 08:03:52;;;;;;;39.40;20.30;;;;;;;12.17;100.00;99762.09;5174350;27;20142;-63
2022/10/06 08:06:18;;;;;;;29.90;18.88;;;;;;;12.42;100.00;99773.59;5174242;27;20046;-65
2022/10/06 08:08:47;;;;;;;33.03;19.67;;;;;;;12.60;100.00;99776.72;5174246;27;20528;-65
2022/10/06 08:11:14;;;;;;;40.22;21.45;;;;;;;12.62;100.00;99780.69;5174028;27;20057;-62
2022/10/06 08:13:42;;;;;;;31.23;19.65;;;;;;;12.78;100.00;99771.53;5174263;27;20046;-65
2022/10/06 08:16:10;;;;;;;32.92;18.92;;;;;;;13.00;100.00;99768.03;5173904;27;20054;-65
2022/10/06 08:18:37;;;;;;;29.65;18.00;;;;;;;13.07;100.00;99753.59;5174307;27;20053;-63
2022/10/06 08:21:09;;;;;;;32.47;17.90;;;;;;;13.26;100.00;99737.03;5174186;27;20046;-65
2022/10/06 08:23:41;;;;;;;35.85;20.00;;;;;;;13.64;100.00;99694.72;5173903;27;20129;-67
2022/10/06 08:26:08;;;;;;;28.30;18.95;;;;;;;13.42;100.00;99671.56;5174023;27;20110;-66
2022/10/06 08:28:35;;;;;;;28.08;18.88;;;;;;;13.38;100.00;99689.22;5174017;27;20050;-66
2022/10/06 08:31:05;;;;;;;29.85;16.73;;;;;;;12.98;100.00;99690.53;5174044;27;20204;-66
2022/10/06 08:33:37;;;;;;;28.70;17.73;;;;;;;13.12;100.00;99695.47;5174011;27;20050;-66
2022/10/06 08:36:04;;;;;;;28.70;14.45;;;;;;;13.63;100.00;99709.66;5173903;27;20481;-63
2022/10/06 08:38:30;;;;;;;28.55;16.50;;;;;;;13.52;100.00;99672.09;5173643;27;20042;-65
2022/10/06 08:40:57;;;;;;;28.15;17.83;;;;;;;13.28;100.00;99665.06;5173761;27;20054;-65
2022/10/06 08:43:25;;;;;;;24.85;16.65;;;;;;;13.91;100.00;99631.28;5173530;27;20047;-65
2022/10/06 08:45:58;;;;;;;28.50;23.60;;;;;;;14.30;100.00;99557.25;5173584;27;20065;-65
2022/10/06 08:48:27;;;;;;;29.35;16.85;;;;;;;14.61;100.00;99508.25;5173812;27;20050;-65
2022/10/06 08:51:04;;;;;;;31.58;18.25;;;;;;;14.42;100.00;99478.94;5173696;27;20583;-65
2022/10/06 08:53:37;;;;;;;27.88;15.95;;;;;;;14.82;100.00;99380.66;5173947;27;20102;-65
2022/10/06 08:56:16;;;;;;;25.52;15.27;;;;;;;14.56;100.00;99266.66;5173337;27;20046;-66
2022/10/06 08:58:51;;;;;;;24.38;15.50;;;;;;;14.51;100.00;99304.84;5173710;27;20053;-65
2022/10/06 09:01:19;;;;;;;20.88;15.43;;;;;;;13.79;100.00;99309.91;5173479;27;20106;-65
2022/10/06 09:03:48;;;;;;;23.55;16.00;;;;;;;14.69;100.00;99338.00;5173141;27;20050;-66
2022/10/06 09:06:34;;;;;;;21.48;14.43;;;;;;;15.65;100.00;99155.03;5172990;27;20504;-66
2022/10/06 09:09:13;;;;;;;19.65;13.75;;;;;;;15.91;100.00;98968.56;5173324;27;20425;-66
2022/10/06 09:11:49;;;;;;;21.13;13.40;;;;;;;16.00;100.00;98822.38;5173210;27;20073;-66
2022/10/06 09:14:25;;;;;;;27.65;15.27;;;;;;;16.70;100.00;98631.81;5173057;27;20425;-66
2022/10/06 09:16:56;;;;;;;20.23;14.60;;;;;;;16.07;100.00;98518.16;5173461;27;20145;-66
2022/10/06 09:19:34;;;;;;;21.98;14.38;;;;;;;16.02;100.00;98681.72;5173393;27;20049;-66
2022/10/06 09:22:03;;;;;;;20.88;14.18;;;;;;;16.00;100.00;98621.31;5173010;27;20102;-66
2022/10/06 09:24:34;;;;;;;21.73;14.07;;;;;;;17.21;100.00;98493.31;5172826;27;20141;-66
2022/10/06 09:27:16;;;;;;;23.98;13.65;;;;;;;16.09;100.00;98399.59;5172884;27;20053;-66
2022/10/06 09:29:43;;;;;;;17.48;13.20;;;;;;;17.24;100.00;98486.91;5173058;27;20505;-66
2022/10/06 09:32:10;;;;;;;21.05;13.70;;;;;;;17.17;100.00;98437.19;5172808;27;20050;-66
2022/10/06 09:34:41;;;;;;;20.17;13.88;;;;;;;17.66;100.00;98370.84;5172750;27;20054;-66
2022/10/06 09:37:11;;;;;;;27.63;13.65;;;;;;;18.05;100.00;98324.75;5172778;27;20069;-66
2022/10/06 09:39:39;;;;;;;20.48;13.07;;;;;;;17.98;100.00;98322.16;5172838;27;20069;-66
2022/10/06 09:42:12;;;;;;;20.45;13.23;;;;;;;17.31;100.00;98331.63;5172663;27;20046;-66
2022/10/06 09:44:49;;;;;;;19.23;12.63;;;;;;;17.23;100.00;98351.59;5172849;27;20643;-66
2022/10/06 09:47:36;;;;;;;16.70;12.65;;;;;;;18.40;100.00;98320.25;5172904;27;20086;-66
2022/10/06 09:50:11;;;;;;;22.08;12.43;;;;;;;18.17;100.00;98335.13;5172457;27;20057;-67
2022/10/06 09:52:37;;;;;;;21.77;12.57;;;;;;;18.57;100.00;98312.66;5172936;27;20049;-66
2022/10/06 09:55:11;;;;;;;17.10;13.00;;;;;;;17.60;100.00;98319.91;5172355;27;20572;-66
2022/10/06 09:57:39;;;;;;;19.75;11.93;;;;;;;18.23;100.00;98325.06;5172504;27;20063;-66
2022/10/06 10:00:28;;;;;;;14.85;11.77;;;;;;;18.33;100.00;98318.44;5172422;27;20413;-66
2022/10/06 10:03:01;;;;;;;19.15;12.50;;;;;;;17.85;100.00;98327.63;5172415;27;20429;-66
2022/10/06 10:05:29;;;;;;;17.13;11.60;;;;;;;17.46;100.00;98339.59;5172521;27;20133;-66
2022/10/06 10:08:08;;;;;;;16.73;11.82;;;;;;;17.50;100.00;98368.03;5172179;27;20280;-66
2022/10/06 10:10:35;;;;;;;18.65;12.70;;;;;;;17.41;100.00;98419.25;5172710;27;20125;-66
2022/10/06 10:13:03;;;;;;;19.25;12.13;;;;;;;17.77;100.00;98421.28;5171932;27;20054;-67
2022/10/06 10:15:34;;;;;;;19.15;12.38;;;;;;;16.56;100.00;98470.75;5171821;27;20050;-66
2022/10/06 10:18:02;;;;;;;22.95;12.52;;;;;;;17.26;100.00;98528.81;5172149;27;20099;-66
2022/10/06 10:20:33;;;;;;;22.13;11.73;;;;;;;16.35;100.00;98602.69;5172169;27;20551;-66
2022/10/06 10:23:03;;;;;;;16.27;11.20;;;;;;;16.93;100.00;98622.00;5172372;27;20134;-66
2022/10/06 10:25:52;;;;;;;17.67;11.27;;;;;;;17.59;100.00;98528.94;5172067;27;20073;-66
2022/10/06 10:28:49;;;;;;;22.35;11.52;;;;;;;17.87;100.00;98488.78;5172186;27;20046;-66
2022/10/06 10:31:24;;;;;;;20.25;11.82;;;;;;;18.15;100.00;98437.41;5171749;27;20050;-66
2022/10/06 10:33:59;;;;;;;14.32;10.70;;;;;;;18.37;100.00;98406.38;5171909;27;20528;-66
2022/10/06 10:36:34;;;;;;;18.70;11.00;;;;;;;18.62;100.00;98358.50;5171771;27;20528;-66
2022/10/06 10:39:01;;;;;;;20.35;10.60;;;;;;;18.38;100.00;98377.41;5171975;27;20047;-66
2022/10/06 10:41:37;;;;;;;17.27;11.10;;;;;;;18.22;100.00;98397.63;5171940;27;20050;-66
2022/10/06 10:44:09;;;;;;;19.05;14.68;;;;;;;18.32;100.00;98410.44;5171743;27;20054;-66
2022/10/06 10:46:42;;;;;;;21.33;14.00;;;;;;;17.86;100.00;98474.16;5172131;27;20057;-66
2022/10/06 10:49:12;;;;;;;17.50;10.05;;;;;;;17.82;100.00;98559.38;5171520;27;20046;-66
2022/10/06 10:51:42;;;;;;;25.55;10.27;;;;;;;17.61;100.00;98623.56;5171482;27;20094;-66
2022/10/06 10:54:13;;;;;;;16.13;10.57;;;;;;;17.36;100.00;98657.25;5171699;27;20050;-66
2022/10/06 10:56:39;;;;;;;17.42;10.40;;;;;;;17.47;100.00;98637.69;5171631;27;20053;-65
2022/10/06 10:59:13;;;;;;;16.05;9.95;;;;;;;16.84;100.00;98727.72;5171755;27;20499;-63
2022/10/06 11:01:44;;;;;;;13.85;9.40;;;;;;;17.09;100.00;98815.19;5171649;27;20509;-63
2022/10/06 11:04:13;;;;;;;20.95;10.55;;;;;;;17.13;100.00;98844.41;5171509;27;20042;-62
2022/10/06 11:07:05;;;;;;;16.08;9.60;;;;;;;16.96;100.00;98956.19;5171348;27;20051;-62
2022/10/06 11:09:39;;;;;;;18.30;12.68;;;;;;;16.94;100.00;98962.13;5171878;27;20141;-62
2022/10/06 11:12:17;;;;;;;13.13;9.38;;;;;;;16.78;100.00;99010.97;5171632;27;20348;-61
2022/10/06 11:14:52;;;;;;;15.63;9.27;;;;;;;16.87;100.00;99066.66;5171238;27;20087;-62
2022/10/06 11:17:42;;;;;;;14.57;12.10;;;;;;;16.94;100.00;99049.97;5171560;27;20049;-58
2022/10/06 11:20:27;;;;;;;18.58;9.60;;;;;;;16.28;100.00;99153.22;5171654;27;20056;-60
2022/10/06 11:22:59;;;;;;;21.10;9.05;;;;;;;17.23;100.00;99074.59;5167704;27;20054;-64
2022/10/06 11:25:32;;;;;;;15.07;8.80;;;;;;;17.14;100.00;98954.00;5171091;27;20042;-63
2022/10/06 11:28:07;;;;;;;14.50;8.02;;;;;;;17.28;100.00;98930.88;5172725;27;20050;-63
2022/10/06 11:30:41;;;;;;;11.48;7.57;;;;;;;17.08;100.00;99016.56;5174639;27;20053;-64
2022/10/06 11:33:16;;;;;;;12.43;9.68;;;;;;;17.05;100.00;98964.00;5174578;27;20057;-64